Cape Coral, Florida
Current Conditions -  °F | °C
As of 8:53 PM on Saturday 20 Dec 2014 (Local Time) from KFMY Reporting Station
Clear Clear  
Wind Chill: 68°   Ceiling: Unl
Heat Index: 68°   Visibility: 10mi
Dew Point: 63°   Wind: 0mph
Humidity: 84%   Direction: NA
Pressure: 30.07"   Gusts: NA
Location:  26.63°N, 81.96°W
Report Text: KFMY 210153Z 00000KT 10SM CLR 20/17 A3007 RMK AO2 SLP185 T02000172
Loading
Personal Weather Stations






























Interactive Weather Map New forecast layout! Learn more

10-Day Weather Forecast

Advertisements
Track Severe Weather on mobile